X  Lukk Metar værinformasjon om luftfart     EDDH Hamburg Helmut Schmidt Airport
Temperatur
0°C Temperatur
-1°C Duggpunkt
93% Luftfuktighet



Vind
3 M/S
6 MPT
10 KM/T
5 KNP



190°
S
Nåværende forhold

Overskyet Overskyet
Trykk 1005.92 (hPa) - 29.7 (inHg)
Sikt 5.6 (mil) - 9 (km)
Flyplass
Flyplass-kode EDDH

Plassering: Hamburg Helmut Schmidt Airport
Avstand: 11 (km)

Metar:
EDDH 090550Z AUTO 19005KT 170V230 9000 OVC012 M00/M01 Q1006 TEMPO 3000 BR

Tid: 09-12-2022 06:50 CET